createdAt,value
2018-06-24T00:01:23.362Z,34.84
2018-06-24T00:03:55.625Z,34.99
2018-06-24T00:06:27.972Z,36.22
2018-06-24T00:09:00.906Z,35.63
2018-06-24T00:11:33.117Z,34.37
2018-06-24T00:14:06.450Z,35.16
2018-06-24T00:16:38.967Z,34.34
2018-06-24T00:19:12.260Z,34.69
2018-06-24T00:21:44.716Z,34.78
2018-06-24T00:24:17.599Z,34.80
2018-06-24T00:26:50.655Z,35.31
2018-06-24T00:29:24.266Z,34.96
2018-06-24T00:31:57.177Z,35.96
2018-06-24T00:34:29.260Z,34.93
2018-06-24T00:37:02.258Z,35.72
2018-06-24T00:39:35.534Z,36.57
2018-06-24T00:42:08.773Z,34.71
2018-06-24T00:44:41.626Z,34.61
2018-06-24T00:47:13.811Z,34.85
2018-06-24T00:49:46.620Z,33.50
2018-06-24T00:52:19.075Z,35.28
2018-06-24T00:54:52.344Z,33.65
2018-06-24T00:57:24.929Z,33.47
2018-06-24T01:00:07.059Z,36.17
2018-06-24T01:02:40.414Z,37.16
2018-06-24T01:05:14.059Z,37.87
2018-06-24T01:07:47.347Z,37.62
2018-06-24T01:10:19.599Z,38.00
2018-06-24T01:12:52.392Z,37.85
2018-06-24T01:15:25.366Z,37.86
2018-06-24T01:17:57.882Z,37.04
2018-06-24T01:20:30.301Z,37.39
2018-06-24T01:23:03.286Z,36.63
2018-06-24T01:25:36.251Z,36.70
2018-06-24T01:28:09.474Z,37.60
2018-06-24T01:30:41.961Z,37.20
2018-06-24T01:33:14.672Z,37.76
2018-06-24T01:35:47.579Z,38.10
2018-06-24T01:38:20.264Z,38.05
2018-06-24T01:40:53.166Z,36.96
2018-06-24T01:43:25.329Z,36.63
2018-06-24T01:45:58.187Z,36.92
2018-06-24T01:48:31.309Z,36.67
2018-06-24T01:51:04.007Z,36.55
2018-06-24T01:53:36.498Z,36.13
2018-06-24T01:56:09.536Z,35.81
2018-06-24T01:58:42.341Z,35.20
2018-06-24T02:01:14.921Z,35.89
2018-06-24T02:03:48.095Z,34.90
2018-06-24T02:06:20.996Z,35.46
2018-06-24T02:08:53.517Z,34.18
2018-06-24T02:11:26.235Z,34.04
2018-06-24T02:13:58.903Z,35.26
2018-06-24T02:16:32.024Z,34.74
2018-06-24T02:19:04.604Z,34.89
2018-06-24T02:21:37.938Z,34.89
2018-06-24T02:24:10.334Z,34.16
2018-06-24T02:26:42.757Z,33.95
2018-06-24T02:29:15.719Z,32.97
2018-06-24T02:31:48.140Z,34.58
2018-06-24T02:34:20.690Z,34.03
2018-06-24T02:36:53.896Z,33.74
2018-06-24T02:39:26.052Z,33.62
2018-06-24T02:41:59.197Z,34.60
2018-06-24T02:44:32.519Z,33.71
2018-06-24T02:47:05.716Z,33.54
2018-06-24T02:49:38.542Z,32.98
2018-06-24T02:52:11.167Z,33.99
2018-06-24T02:54:44.095Z,32.66
2018-06-24T02:57:17.370Z,32.98
2018-06-24T02:59:50.265Z,33.85
2018-06-24T03:02:23.406Z,33.24
2018-06-24T03:04:56.377Z,34.01
2018-06-24T03:07:28.780Z,32.90
2018-06-24T03:10:01.140Z,33.26
2018-06-24T03:12:34.796Z,33.75
2018-06-24T03:15:07.510Z,34.04
2018-06-24T03:17:40.188Z,32.77
2018-06-24T03:20:13.379Z,32.87
2018-06-24T03:22:45.958Z,33.57
2018-06-24T03:25:18.874Z,33.92
2018-06-24T03:27:51.408Z,33.21
2018-06-24T03:30:23.616Z,32.66
2018-06-24T03:32:56.483Z,32.48
2018-06-24T03:35:29.705Z,33.21
2018-06-24T03:38:03.243Z,32.17
2018-06-24T03:40:35.895Z,32.58
2018-06-24T03:43:08.347Z,33.25
2018-06-24T03:45:40.487Z,34.05
2018-06-24T03:48:12.882Z,33.09
2018-06-24T03:50:45.724Z,33.65
2018-06-24T03:53:18.698Z,32.43
2018-06-24T03:55:52.868Z,33.13
2018-06-24T03:58:26.294Z,33.32
2018-06-24T04:00:59.097Z,33.35
2018-06-24T04:03:32.414Z,33.82
2018-06-24T04:06:04.703Z,34.29
2018-06-24T04:08:37.697Z,34.54
2018-06-24T04:11:10.076Z,35.33
2018-06-24T04:13:44.266Z,34.11
2018-06-24T04:16:16.867Z,34.86
2018-06-24T04:18:49.644Z,35.70
2018-06-24T04:21:24.082Z,34.47
2018-06-24T04:23:57.133Z,34.85
2018-06-24T04:26:31.984Z,35.95
2018-06-24T04:29:05.201Z,35.04
2018-06-24T04:31:39.524Z,34.48
2018-06-24T04:34:12.030Z,35.37
2018-06-24T04:36:46.536Z,35.56
2018-06-24T04:39:19.209Z,34.80
2018-06-24T04:41:52.148Z,34.88
2018-06-24T04:44:25.295Z,32.95
2018-06-24T04:46:58.246Z,35.27
2018-06-24T04:49:30.847Z,34.70
2018-06-24T04:52:03.589Z,35.52
2018-06-24T04:54:35.967Z,32.36
2018-06-24T04:57:10.911Z,35.41
2018-06-24T04:59:45.779Z,36.75
2018-06-24T05:02:18.767Z,35.74
2018-06-24T05:04:53.632Z,35.18
2018-06-24T05:07:28.198Z,35.29
2018-06-24T05:10:01.290Z,34.04
2018-06-24T05:12:34.079Z,34.99
2018-06-24T05:15:07.548Z,34.11
2018-06-24T05:17:40.669Z,34.22
2018-06-24T05:20:13.126Z,34.89
2018-06-24T05:22:46.100Z,34.23
2018-06-24T05:25:19.131Z,34.16
2018-06-24T05:27:51.640Z,35.09
2018-06-24T05:30:24.692Z,34.26
2018-06-24T05:33:01.830Z,35.14
2018-06-24T05:35:37.534Z,34.08
2018-06-24T05:38:15.165Z,33.91
2018-06-24T05:40:48.038Z,34.45
2018-06-24T05:43:20.699Z,34.03
2018-06-24T05:45:57.989Z,34.19
2018-06-24T05:48:31.317Z,34.48
2018-06-24T05:51:04.522Z,34.18
2018-06-24T05:53:36.988Z,34.86
2018-06-24T05:56:10.091Z,34.89
2018-06-24T05:58:42.272Z,35.77
2018-06-24T06:01:14.943Z,34.93
2018-06-24T06:03:50.030Z,36.09
2018-06-24T06:06:22.524Z,35.50
2018-06-24T06:08:55.462Z,36.20
2018-06-24T06:11:29.598Z,35.68
2018-06-24T06:14:02.132Z,35.88
2018-06-24T06:16:34.702Z,36.15
2018-06-24T06:19:12.150Z,35.66
2018-06-24T06:21:45.557Z,34.86
2018-06-24T06:24:18.508Z,36.20
2018-06-24T06:26:51.477Z,36.61
2018-06-24T06:29:26.725Z,35.97
2018-06-24T06:32:00.057Z,35.49
2018-06-24T06:34:33.036Z,35.66
2018-06-24T06:37:05.052Z,36.33
2018-06-24T06:39:38.164Z,36.08
2018-06-24T06:42:10.554Z,36.18
2018-06-24T06:44:43.310Z,36.56
2018-06-24T06:47:17.763Z,35.61
2018-06-24T06:49:52.300Z,36.48
2018-06-24T06:52:25.223Z,36.38
2018-06-24T06:54:57.828Z,36.41
2018-06-24T06:57:30.914Z,36.23
2018-06-24T07:00:03.986Z,36.24
2018-06-24T07:02:36.252Z,35.64
2018-06-24T07:05:08.228Z,36.29
2018-06-24T07:07:41.857Z,36.73
2018-06-24T07:10:16.929Z,36.12
2018-06-24T07:12:52.381Z,36.48
2018-06-24T07:15:24.595Z,36.18
2018-06-24T07:17:57.581Z,35.73
2018-06-24T07:20:30.441Z,36.18
2018-06-24T07:23:03.475Z,36.21
2018-06-24T07:25:35.978Z,35.66
2018-06-24T07:28:09.467Z,35.43
2018-06-24T07:30:42.114Z,35.81
2018-06-24T07:33:14.465Z,35.34
2018-06-24T07:35:47.216Z,35.26
2018-06-24T07:38:20.262Z,34.48
2018-06-24T07:40:53.174Z,34.92
2018-06-24T07:43:25.723Z,34.44
2018-06-24T07:45:58.628Z,34.96
2018-06-24T07:48:30.998Z,34.83
2018-06-24T07:51:03.739Z,34.65
2018-06-24T07:53:36.759Z,33.88
2018-06-24T07:56:09.827Z,34.10
2018-06-24T07:58:42.729Z,34.74
2018-06-24T08:01:15.057Z,34.06
2018-06-24T08:03:47.754Z,34.02
2018-06-24T08:06:20.214Z,34.45
2018-06-24T08:08:53.234Z,33.48
2018-06-24T08:11:25.955Z,34.20
2018-06-24T08:13:59.591Z,34.28
2018-06-24T08:16:34.569Z,34.16
2018-06-24T08:19:07.217Z,33.81
2018-06-24T08:21:40.110Z,33.88
2018-06-24T08:24:12.854Z,34.31
2018-06-24T08:26:45.540Z,34.10
2018-06-24T08:29:18.556Z,33.53
2018-06-24T08:31:52.015Z,32.99
2018-06-24T08:34:24.635Z,33.21
2018-06-24T08:36:57.174Z,33.62
2018-06-24T08:39:30.481Z,33.54
2018-06-24T08:42:03.903Z,33.45
2018-06-24T08:44:37.638Z,33.28
2018-06-24T08:47:13.611Z,32.47
2018-06-24T08:49:47.948Z,33.64
2018-06-24T08:52:20.860Z,32.52
2018-06-24T08:54:54.915Z,32.19
2018-06-24T08:57:28.337Z,32.71
2018-06-24T09:00:00.893Z,32.77
2018-06-24T09:02:33.781Z,31.81
2018-06-24T09:05:06.882Z,32.02
2018-06-24T09:07:41.044Z,31.60
2018-06-24T09:10:13.608Z,31.59
2018-06-24T09:12:45.836Z,31.04
2018-06-24T09:15:18.833Z,31.70
2018-06-24T09:17:51.726Z,30.64
2018-06-24T09:20:23.857Z,30.93
2018-06-24T09:22:58.170Z,31.64
2018-06-24T09:25:30.857Z,30.81
2018-06-24T09:28:03.762Z,30.95
2018-06-24T09:30:35.981Z,31.00
2018-06-24T09:33:09.250Z,30.95
2018-06-24T09:35:41.534Z,30.89
2018-06-24T09:38:15.689Z,30.92
2018-06-24T09:40:49.209Z,30.88
2018-06-24T09:43:22.218Z,30.77
2018-06-24T09:45:54.722Z,31.34
2018-06-24T09:48:27.216Z,30.59
2018-06-24T09:50:59.570Z,29.92
2018-06-24T09:53:32.431Z,31.23
2018-06-24T09:56:05.593Z,30.87
2018-06-24T09:58:38.939Z,31.85
2018-06-24T10:01:11.566Z,32.34
2018-06-24T10:03:44.453Z,31.49
2018-06-24T10:06:16.633Z,31.45
2018-06-24T10:08:49.072Z,31.89
2018-06-24T10:11:21.677Z,31.67
2018-06-24T10:13:54.140Z,31.89
2018-06-24T10:16:26.431Z,31.45
2018-06-24T10:18:59.337Z,30.99
2018-06-24T10:21:32.010Z,32.01
2018-06-24T10:24:05.122Z,31.02
2018-06-24T10:26:38.244Z,31.27
2018-06-24T10:29:11.233Z,31.04
2018-06-24T10:31:44.056Z,30.28
2018-06-24T10:34:16.042Z,31.58
2018-06-24T10:36:48.538Z,30.35
2018-06-24T10:39:21.251Z,29.86
2018-06-24T10:41:54.114Z,30.55
2018-06-24T10:44:26.908Z,30.08
2018-06-24T10:47:00.304Z,30.52
2018-06-24T10:49:32.952Z,30.08
2018-06-24T10:52:05.434Z,29.92
2018-06-24T10:54:38.511Z,29.99
2018-06-24T10:57:11.107Z,30.35
2018-06-24T10:59:43.610Z,30.35
2018-06-24T11:02:16.265Z,30.27
2018-06-24T11:04:49.161Z,31.15
2018-06-24T11:07:22.105Z,30.40
2018-06-24T11:09:54.595Z,30.26
2018-06-24T11:12:28.063Z,30.43
2018-06-24T11:15:01.609Z,30.13
2018-06-24T11:17:34.409Z,30.38
2018-06-24T11:20:07.658Z,29.44
2018-06-24T11:22:40.486Z,30.02
2018-06-24T11:25:13.023Z,29.51
2018-06-24T11:27:45.217Z,30.24
2018-06-24T11:30:17.563Z,30.11
2018-06-24T11:32:49.959Z,29.13
2018-06-24T11:35:22.569Z,30.32
2018-06-24T11:37:54.938Z,30.74
2018-06-24T11:40:27.329Z,29.67
2018-06-24T11:43:00.270Z,29.96
2018-06-24T11:45:33.203Z,30.64
2018-06-24T11:48:06.165Z,29.78
2018-06-24T11:50:38.990Z,31.45
2018-06-24T11:53:11.162Z,30.59
2018-06-24T11:55:44.066Z,30.14
2018-06-24T11:58:17.348Z,30.04
2018-06-24T12:00:50.724Z,30.65
2018-06-24T12:03:23.643Z,29.04
2018-06-24T12:05:56.601Z,30.92
2018-06-24T12:08:29.211Z,29.26
2018-06-24T12:11:02.156Z,29.04
2018-06-24T12:13:34.474Z,29.91
2018-06-24T12:16:07.810Z,29.21
2018-06-24T12:18:40.294Z,29.30
2018-06-24T12:21:13.254Z,29.06
2018-06-24T12:23:45.586Z,29.07
2018-06-24T12:26:18.227Z,29.78
2018-06-24T12:28:50.935Z,29.28
2018-06-24T12:31:24.197Z,29.46
2018-06-24T12:33:56.713Z,30.18
2018-06-24T12:36:44.039Z,29.30
2018-06-24T12:39:17.724Z,29.26
2018-06-24T12:41:50.339Z,28.84
2018-06-24T12:44:22.929Z,28.71
2018-06-24T12:46:55.803Z,30.03
2018-06-24T12:49:28.561Z,29.27
2018-06-24T12:52:01.819Z,28.61
2018-06-24T12:54:34.454Z,29.06
2018-06-24T12:57:06.767Z,28.35
2018-06-24T12:59:39.726Z,28.84
2018-06-24T13:02:12.998Z,29.08
2018-06-24T13:04:45.447Z,28.72
2018-06-24T13:07:18.213Z,28.47
2018-06-24T13:09:51.194Z,28.05
2018-06-24T13:12:24.688Z,28.12
2018-06-24T13:14:57.649Z,27.42
2018-06-24T13:17:30.539Z,27.78
2018-06-24T13:20:03.306Z,28.26
2018-06-24T13:22:36.324Z,28.41
2018-06-24T13:25:09.644Z,27.49
2018-06-24T13:27:41.828Z,28.77
2018-06-24T13:30:14.472Z,27.67
2018-06-24T13:32:46.865Z,28.93
2018-06-24T13:35:19.490Z,28.76
2018-06-24T13:37:51.598Z,28.69
2018-06-24T13:40:24.290Z,28.08
2018-06-24T13:42:56.778Z,28.19
2018-06-24T13:45:29.397Z,27.04
2018-06-24T13:48:02.104Z,27.77
2018-06-24T13:50:35.021Z,29.33
2018-06-24T13:53:07.650Z,29.59
2018-06-24T13:55:40.230Z,30.54
2018-06-24T13:58:13.095Z,30.42
2018-06-24T14:00:45.523Z,29.64
2018-06-24T14:03:18.156Z,30.34
2018-06-24T14:05:51.230Z,30.69
2018-06-24T14:08:24.375Z,30.87
2018-06-24T14:10:56.866Z,31.09
2018-06-24T14:13:30.258Z,30.39
2018-06-24T14:16:03.078Z,31.21
2018-06-24T14:18:35.436Z,30.98
2018-06-24T14:21:08.493Z,31.80
2018-06-24T14:23:41.695Z,32.99
2018-06-24T14:26:15.194Z,32.91
2018-06-24T14:28:47.604Z,33.77
2018-06-24T14:31:19.890Z,34.25
2018-06-24T14:33:52.950Z,34.69
2018-06-24T14:36:25.386Z,34.29
2018-06-24T14:38:58.121Z,35.07
2018-06-24T14:41:30.463Z,34.78
2018-06-24T14:44:02.922Z,34.16
2018-06-24T14:46:35.957Z,35.62
2018-06-24T14:49:08.807Z,33.96
2018-06-24T14:51:42.416Z,34.21
2018-06-24T14:54:16.015Z,34.57
2018-06-24T14:56:49.298Z,33.87
2018-06-24T14:59:22.079Z,34.70
2018-06-24T15:01:54.590Z,33.95
2018-06-24T15:04:27.451Z,34.50
2018-06-24T15:07:00.128Z,34.60
2018-06-24T15:09:32.673Z,33.90
2018-06-24T15:12:05.045Z,34.08
2018-06-24T15:14:38.209Z,35.39
2018-06-24T15:17:10.969Z,34.28
2018-06-24T15:19:43.798Z,34.35
2018-06-24T15:22:16.362Z,34.82
2018-06-24T15:24:49.363Z,34.30
2018-06-24T15:27:22.860Z,34.31
2018-06-24T15:29:56.118Z,34.54
2018-06-24T15:32:29.156Z,35.00
2018-06-24T15:35:02.371Z,35.37
2018-06-24T15:37:35.976Z,34.98
2018-06-24T15:40:09.289Z,35.01
2018-06-24T15:42:42.249Z,34.83
2018-06-24T15:45:15.992Z,35.27
2018-06-24T15:47:49.236Z,35.44
2018-06-24T15:50:22.597Z,34.68
2018-06-24T15:52:55.930Z,34.94
2018-06-24T15:55:29.153Z,34.70
2018-06-24T16:05:07.442Z,34.94
2018-06-24T16:07:40.264Z,35.36
2018-06-24T16:10:13.849Z,35.08
2018-06-24T16:12:46.679Z,35.28
2018-06-24T16:15:19.511Z,34.95
2018-06-24T16:17:52.681Z,35.27
2018-06-24T16:20:26.938Z,34.64
2018-06-24T16:23:00.305Z,35.50
2018-06-24T16:25:33.956Z,34.32
2018-06-24T16:28:07.093Z,35.19
2018-06-24T16:30:40.039Z,35.36
2018-06-24T16:33:12.502Z,34.28
2018-06-24T16:35:44.954Z,34.41
2018-06-24T16:38:18.029Z,34.12
2018-06-24T16:40:51.957Z,32.99
2018-06-24T16:43:25.032Z,32.43
2018-06-24T16:45:58.259Z,32.66
2018-06-24T16:48:31.612Z,31.27
2018-06-24T16:51:05.435Z,31.02
2018-06-24T16:53:38.551Z,31.76
2018-06-24T16:56:11.813Z,32.28
2018-06-24T16:58:45.296Z,31.38
2018-06-24T17:01:18.603Z,31.35
2018-06-24T17:03:51.521Z,31.74
2018-06-24T17:06:24.725Z,30.77
2018-06-24T17:08:57.463Z,30.42
2018-06-24T17:11:32.026Z,30.54
2018-06-24T17:14:05.239Z,30.15
2018-06-24T17:16:38.776Z,30.94
2018-06-24T17:19:12.461Z,30.12
2018-06-24T17:21:46.037Z,30.27
2018-06-24T17:24:19.304Z,30.35
2018-06-24T17:26:52.647Z,31.22
2018-06-24T17:29:26.381Z,31.45
2018-06-24T17:31:59.152Z,31.98
2018-06-24T17:34:32.599Z,30.96
2018-06-24T17:37:06.040Z,31.38
2018-06-24T17:39:39.248Z,31.31
2018-06-24T17:42:12.466Z,31.27
2018-06-24T17:44:45.623Z,30.56
2018-06-24T17:47:19.405Z,32.23
2018-06-24T17:49:53.332Z,31.59
2018-06-24T17:52:26.607Z,31.97
2018-06-24T17:54:59.849Z,29.97
2018-06-24T17:57:33.366Z,32.29
2018-06-24T18:00:06.332Z,31.74
2018-06-24T18:02:39.572Z,31.78
2018-06-24T18:05:12.692Z,32.13
2018-06-24T18:07:45.900Z,31.46
2018-06-24T18:10:18.759Z,31.54
2018-06-24T18:12:52.066Z,31.39
2018-06-24T18:15:25.727Z,31.64
2018-06-24T18:17:59.150Z,32.14
2018-06-24T18:20:32.349Z,31.85
2018-06-24T18:23:05.148Z,32.38
2018-06-24T18:25:38.234Z,32.20
2018-06-24T18:28:11.165Z,31.40
2018-06-24T18:30:43.622Z,32.49
2018-06-24T18:33:16.640Z,31.50
2018-06-24T18:35:49.431Z,32.53
2018-06-24T18:38:22.511Z,31.82
2018-06-24T18:40:55.629Z,32.50
2018-06-24T18:43:28.673Z,31.82
2018-06-24T18:46:01.931Z,32.25
2018-06-24T18:48:34.832Z,32.42
2018-06-24T18:51:08.222Z,32.66
2018-06-24T18:53:40.669Z,31.14
2018-06-24T18:56:13.760Z,32.19
2018-06-24T18:58:46.134Z,32.95
2018-06-24T19:01:18.532Z,31.83
2018-06-24T19:03:51.757Z,31.78
2018-06-24T19:06:24.740Z,32.63
2018-06-24T19:08:58.855Z,31.58
2018-06-24T19:11:31.586Z,31.59
2018-06-24T19:14:04.874Z,31.95
2018-06-24T19:16:38.177Z,31.73
2018-06-24T19:19:11.579Z,32.11
2018-06-24T19:21:44.304Z,32.08
2018-06-24T19:24:17.156Z,32.27
2018-06-24T19:26:50.575Z,32.90
2018-06-24T19:29:23.111Z,32.29
2018-06-24T19:31:55.768Z,32.32
2018-06-24T19:34:27.826Z,31.94
2018-06-24T19:37:00.847Z,31.38
2018-06-24T19:39:33.667Z,32.63
2018-06-24T19:42:06.354Z,32.25
2018-06-24T19:44:39.790Z,32.71
2018-06-24T19:47:12.784Z,32.91
2018-06-24T19:52:35.691Z,32.34
2018-06-24T19:55:08.449Z,33.36
2018-06-24T19:57:41.145Z,31.92
2018-06-24T20:00:13.641Z,32.72
2018-06-24T20:02:46.651Z,32.13
2018-06-24T20:05:19.333Z,33.17
2018-06-24T20:07:52.565Z,33.38
2018-06-24T20:10:25.417Z,33.12
2018-06-24T20:12:58.362Z,33.21
2018-06-24T20:15:30.615Z,33.35
2018-06-24T20:18:04.284Z,33.20
2018-06-24T20:20:36.796Z,33.04
2018-06-24T20:23:09.684Z,33.67
2018-06-24T20:25:42.072Z,33.15
2018-06-24T20:28:14.823Z,33.44
2018-06-24T20:30:47.709Z,32.61
2018-06-24T20:33:20.530Z,32.88
2018-06-24T20:35:53.567Z,33.21
2018-06-24T20:38:26.373Z,33.84
2018-06-24T20:40:58.703Z,32.74
2018-06-24T20:43:31.438Z,33.95
2018-06-24T20:46:04.490Z,32.94
2018-06-24T20:48:37.326Z,32.60
2018-06-24T20:51:10.158Z,31.70
2018-06-24T20:53:42.904Z,32.82
2018-06-24T20:56:16.010Z,32.56
2018-06-24T20:58:48.731Z,33.35
2018-06-24T21:01:21.543Z,32.64
2018-06-24T21:03:53.773Z,33.74
2018-06-24T21:06:26.413Z,33.79
2018-06-24T21:08:58.755Z,32.43
2018-06-24T21:11:32.073Z,33.09
2018-06-24T21:14:04.549Z,34.11
2018-06-24T21:16:37.449Z,32.89
2018-06-24T21:19:10.352Z,33.22
2018-06-24T21:21:43.127Z,33.25
2018-06-24T21:24:15.822Z,32.85
2018-06-24T21:26:48.611Z,32.76
2018-06-24T21:29:21.988Z,33.51
2018-06-24T21:31:54.953Z,34.04
2018-06-24T21:34:27.422Z,33.96
2018-06-24T21:37:00.038Z,33.59
2018-06-24T21:39:32.701Z,33.01
2018-06-24T21:42:05.317Z,33.31
2018-06-24T21:44:38.020Z,33.44
2018-06-24T21:47:10.847Z,33.58
2018-06-24T21:49:44.002Z,33.75
2018-06-24T21:52:16.484Z,34.67
2018-06-24T21:54:49.579Z,34.25
2018-06-24T21:57:22.786Z,33.81
2018-06-24T21:59:55.804Z,33.78
2018-06-24T22:02:28.089Z,33.75
2018-06-24T22:05:01.256Z,34.35
2018-06-24T22:07:35.430Z,33.91
2018-06-24T22:10:08.406Z,33.87
2018-06-24T22:12:40.708Z,33.58
2018-06-24T22:15:14.328Z,34.79
2018-06-24T22:17:48.572Z,34.27
2018-06-24T22:20:21.679Z,34.11
2018-06-24T22:22:54.228Z,34.42
2018-06-24T22:25:26.834Z,34.22
2018-06-24T22:27:59.024Z,33.96
2018-06-24T22:30:30.863Z,34.67
2018-06-24T22:33:04.156Z,33.37
2018-06-24T22:35:36.222Z,34.46
2018-06-24T22:38:09.111Z,34.05
2018-06-24T22:40:41.756Z,34.17
2018-06-24T22:43:14.277Z,35.17
2018-06-24T22:45:46.745Z,34.15
2018-06-24T22:48:19.736Z,34.04
2018-06-24T22:50:52.571Z,34.88
2018-06-24T22:53:25.437Z,35.40
2018-06-24T22:55:58.829Z,35.81
2018-06-24T22:58:31.581Z,34.78
2018-06-24T23:01:04.675Z,34.23
2018-06-24T23:03:37.308Z,34.21
2018-06-24T23:06:10.709Z,33.28
2018-06-24T23:08:42.931Z,34.43
2018-06-24T23:11:15.680Z,34.09
2018-06-24T23:13:48.296Z,34.11
2018-06-24T23:16:21.316Z,34.16
2018-06-24T23:18:54.585Z,33.86
2018-06-24T23:21:28.003Z,34.06
2018-06-24T23:24:01.097Z,34.88
2018-06-24T23:26:33.905Z,35.07
2018-06-24T23:29:06.508Z,34.56
2018-06-24T23:31:39.517Z,33.98
2018-06-24T23:34:12.711Z,32.90
2018-06-24T23:36:46.006Z,34.20
2018-06-24T23:39:18.826Z,33.18
2018-06-24T23:41:51.644Z,34.51
2018-06-24T23:44:24.293Z,34.58
2018-06-24T23:46:57.367Z,33.72
2018-06-24T23:49:30.105Z,33.48
2018-06-24T23:52:03.306Z,34.02
2018-06-24T23:54:36.124Z,34.07
2018-06-24T23:57:09.460Z,34.13
2018-06-24T23:59:42.248Z,34.45
